Time;durP1;ratioP1;P1;durP2;ratioP2;P2;SDS_P1;SDS_P2;PMS_P1;PMS_P2;Temp;Humidity;BMP_temperature;BMP_pressure;BME280_temperature;BME280_humidity;BME280_pressure;Samples;Min_cycle;Max_cycle;Signal;HPM_P1;HPM_P2
2022/06/26 00:02:11;;;;;;;8.70;7.90;;;25.70;70.80;;;;;;5124389;28;20511;-84
2022/06/26 00:04:39;;;;;;;9.97;9.00;;;25.80;71.70;;;;;;5124901;28;20426;-85
2022/06/26 00:07:07;;;;;;;10.10;9.20;;;25.80;70.60;;;;;;5124581;28;20443;-84
2022/06/26 00:09:35;;;;;;;10.27;9.27;;;25.90;70.60;;;;;;5124591;28;20461;-84
2022/06/26 00:12:05;;;;;;;9.40;8.40;;;25.50;72.20;;;;;;5123827;28;20465;-84
2022/06/26 00:14:33;;;;;;;18.30;9.17;;;25.50;72.80;;;;;;5121270;28;20453;-84
2022/06/26 00:17:01;;;;;;;9.53;8.50;;;25.40;73.20;;;;;;5116948;28;20431;-85
2022/06/26 00:19:29;;;;;;;9.77;8.83;;;25.50;74.50;;;;;;5124822;28;20454;-85
2022/06/26 00:21:57;;;;;;;9.70;8.80;;;25.70;73.20;;;;;;5125833;28;20454;-85
2022/06/26 00:24:25;;;;;;;9.80;8.80;;;25.80;72.20;;;;;;5125256;27;20442;-85
2022/06/26 00:26:53;;;;;;;9.93;9.03;;;25.90;72.20;;;;;;5125391;28;20470;-85
2022/06/26 00:29:23;;;;;;;8.97;8.17;;;25.60;72.50;;;;;;5124633;28;20415;-85
2022/06/26 00:31:51;;;;;;;11.87;10.87;;;25.70;72.90;;;;;;5124469;27;20438;-85
2022/06/26 00:34:20;;;;;;;9.70;8.90;;;25.70;72.60;;;;;;5124071;28;20447;-84
2022/06/26 00:36:48;;;;;;;9.60;8.63;;;25.40;74.00;;;;;;5124144;28;20442;-84
2022/06/26 00:39:16;;;;;;;9.93;9.00;;;25.20;75.10;;;;;;5123064;28;20446;-84
2022/06/26 00:41:44;;;;;;;9.23;8.33;;;25.40;75.10;;;;;;5122959;28;20543;-84
2022/06/26 00:44:15;;;;;;;9.10;8.40;;;25.50;74.90;;;;;;5123897;28;20475;-85
2022/06/26 00:46:45;;;;;;;8.50;7.80;;;25.60;73.60;;;;;;5125242;28;20497;-84
2022/06/26 00:49:13;;;;;;;11.10;8.90;;;25.50;74.30;;;;;;5123705;28;20460;-85
2022/06/26 00:51:42;;;;;;;10.03;9.10;;;25.60;74.50;;;;;;5124006;28;20446;-85
2022/06/26 00:54:10;;;;;;;9.63;8.73;;;25.60;74.20;;;;;;5120387;28;20501;-84
2022/06/26 00:56:38;;;;;;;9.63;8.73;;;25.60;74.40;;;;;;5122840;28;20446;-85
2022/06/26 00:59:06;;;;;;;9.97;9.00;;;25.50;74.40;;;;;;5125911;28;20438;-85
2022/06/26 01:01:34;;;;;;;10.23;9.33;;;25.60;74.40;;;;;;5124119;28;20451;-85
2022/06/26 01:04:04;;;;;;;10.77;9.80;;;25.50;74.30;;;;;;5122518;28;20413;-84
2022/06/26 01:06:32;;;;;;;10.93;9.83;;;25.50;74.20;;;;;;5101025;28;20535;-84
2022/06/26 01:09:00;;;;;;;11.50;9.57;;;25.30;75.20;;;;;;5098330;28;20498;-84
2022/06/26 01:11:28;;;;;;;10.43;9.47;;;25.10;76.30;;;;;;5097899;28;20490;-84
2022/06/26 01:13:56;;;;;;;9.67;8.67;;;25.20;77.60;;;;;;5098378;28;20448;-84
2022/06/26 01:16:25;;;;;;;10.40;9.30;;;25.20;76.40;;;;;;5098577;28;20449;-84
2022/06/26 01:18:55;;;;;;;10.30;9.20;;;25.40;76.30;;;;;;5098587;28;20972;-84
2022/06/26 01:21:24;;;;;;;11.07;9.97;;;25.40;75.90;;;;;;5112487;28;20417;-84
2022/06/26 01:23:54;;;;;;;9.67;8.87;;;25.50;74.70;;;;;;5117915;28;20426;-84
2022/06/26 01:26:23;;;;;;;11.00;9.80;;;25.20;76.50;;;;;;5118156;27;20430;-84
2022/06/26 01:28:51;;;;;;;10.20;9.20;;;25.00;77.40;;;;;;5118188;28;20538;-84
2022/06/26 01:31:19;;;;;;;11.53;9.27;;;24.80;78.40;;;;;;5117793;28;20510;-84
2022/06/26 01:33:48;;;;;;;11.17;10.17;;;24.80;79.90;;;;;;5117656;28;20450;-84
2022/06/26 01:36:16;;;;;;;10.07;9.07;;;24.90;79.00;;;;;;5117714;28;20438;-85
2022/06/26 01:38:44;;;;;;;11.07;10.00;;;25.00;79.20;;;;;;5118642;28;20478;-84
2022/06/26 01:41:13;;;;;;;9.50;8.63;;;25.10;78.00;;;;;;5118108;28;20516;-84
2022/06/26 01:43:41;;;;;;;10.60;9.70;;;25.00;78.90;;;;;;5118627;28;20505;-84
2022/06/26 01:46:09;;;;;;;11.00;8.70;;;25.20;77.70;;;;;;5119189;28;20422;-85
2022/06/26 01:48:39;;;;;;;10.10;9.20;;;25.20;77.30;;;;;;5118240;28;20448;-85
2022/06/26 01:51:07;;;;;;;12.87;9.90;;;25.20;77.50;;;;;;5118612;28;20483;-85
2022/06/26 01:53:35;;;;;;;10.33;9.40;;;25.10;77.70;;;;;;5118733;28;20492;-85
2022/06/26 01:56:04;;;;;;;12.87;10.17;;;25.00;78.40;;;;;;5118610;28;20502;-84
2022/06/26 01:58:33;;;;;;;10.73;9.10;;;25.00;78.00;;;;;;5120131;28;20882;-85
2022/06/26 02:01:03;;;;;;;17.40;14.73;;;25.00;78.80;;;;;;5119831;28;20449;-85
2022/06/26 02:03:31;;;;;;;33.53;26.00;;;25.10;78.20;;;;;;5119706;28;20528;-85
2022/06/26 02:05:59;;;;;;;37.00;26.77;;;25.30;76.80;;;;;;5118663;28;20515;-85
2022/06/26 02:08:27;;;;;;;15.10;13.50;;;25.20;77.10;;;;;;5118896;28;20418;-85
2022/06/26 02:13:43;;;;;;;13.17;10.23;;;25.20;76.70;;;;;;5114410;28;20528;-85
2022/06/26 02:16:12;;;;;;;12.20;11.00;;;25.20;76.60;;;;;;5116454;28;20470;-85
2022/06/26 02:18:41;;;;;;;11.37;10.27;;;25.20;77.00;;;;;;5115996;28;20523;-85
2022/06/26 02:21:09;;;;;;;12.10;10.53;;;25.20;76.80;;;;;;5114644;28;20442;-85
2022/06/26 02:23:37;;;;;;;12.00;10.90;;;25.00;77.90;;;;;;5112835;28;20450;-85
2022/06/26 02:26:06;;;;;;;12.33;11.03;;;25.00;77.50;;;;;;5114430;28;20516;-85
2022/06/26 02:28:34;;;;;;;13.17;11.87;;;25.00;77.10;;;;;;5112986;28;20505;-86
2022/06/26 02:31:04;;;;;;;13.63;12.33;;;25.00;77.60;;;;;;5114049;28;20529;-85
2022/06/26 02:33:33;;;;;;;12.03;10.57;;;25.00;78.10;;;;;;5116138;28;20525;-86
2022/06/26 02:36:01;;;;;;;13.30;11.90;;;25.00;77.90;;;;;;5115305;28;20449;-86
2022/06/26 02:38:29;;;;;;;12.70;11.50;;;25.00;77.10;;;;;;5114881;28;20445;-86
2022/06/26 02:40:57;;;;;;;12.73;11.47;;;25.00;77.20;;;;;;5109682;28;20515;-86
2022/06/26 02:43:25;;;;;;;13.73;9.40;;;25.00;77.30;;;;;;5093903;28;20526;-86
2022/06/26 02:45:53;;;;;;;11.60;10.50;;;25.00;77.00;;;;;;5094545;28;20471;-86
2022/06/26 02:48:23;;;;;;;10.97;10.07;;;24.90;76.80;;;;;;5094259;28;20423;-85
2022/06/26 02:50:51;;;;;;;12.10;10.37;;;24.80;77.00;;;;;;5094516;28;20488;-86
2022/06/26 02:53:19;;;;;;;13.00;10.77;;;25.00;76.60;;;;;;5095306;28;20443;-85
2022/06/26 02:55:47;;;;;;;10.90;10.00;;;24.80;76.60;;;;;;5097226;28;20506;-85
2022/06/26 02:58:15;;;;;;;11.50;10.40;;;24.60;77.20;;;;;;5098710;28;20446;-86
2022/06/26 03:00:43;;;;;;;12.87;11.50;;;24.40;78.10;;;;;;5114508;28;20411;-86
2022/06/26 03:03:11;;;;;;;12.17;10.97;;;24.40;77.70;;;;;;5134276;28;20438;-86
2022/06/26 03:05:41;;;;;;;12.10;10.97;;;24.10;78.10;;;;;;5125758;28;20936;-85
2022/06/26 03:08:09;;;;;;;11.77;10.57;;;24.00;78.70;;;;;;5124008;28;20460;-86
2022/06/26 03:10:37;;;;;;;10.73;9.83;;;24.10;80.00;;;;;;5122431;28;20414;-86
2022/06/26 03:13:05;;;;;;;13.37;9.80;;;24.20;79.60;;;;;;5122064;28;20438;-86
2022/06/26 03:15:33;;;;;;;9.73;8.83;;;24.40;78.30;;;;;;5121922;28;20482;-87
2022/06/26 03:18:02;;;;;;;10.50;9.50;;;24.30;75.80;;;;;;5122407;28;20418;-86
2022/06/26 03:20:30;;;;;;;12.57;10.57;;;24.30;77.20;;;;;;5123050;28;20410;-86
2022/06/26 03:22:59;;;;;;;10.00;9.00;;;24.50;76.80;;;;;;5123065;28;20490;-86
2022/06/26 03:25:27;;;;;;;20.00;15.90;;;24.30;75.10;;;;;;5124207;28;20445;-85
2022/06/26 03:27:56;;;;;;;20.50;15.83;;;24.20;76.00;;;;;;5124281;28;20439;-86
2022/06/26 03:30:23;;;;;;;12.53;10.30;;;24.10;77.20;;;;;;5123644;28;20493;-85
2022/06/26 03:32:51;;;;;;;15.83;8.70;;;24.20;75.80;;;;;;5118216;28;20482;-86
2022/06/26 03:35:19;;;;;;;12.60;8.83;;;24.30;75.20;;;;;;5123911;28;20515;-85
2022/06/26 03:37:47;;;;;;;9.53;8.57;;;24.30;74.20;;;;;;5124249;28;20470;-86
2022/06/26 03:40:16;;;;;;;9.80;8.27;;;24.50;72.90;;;;;;5124226;28;20455;-85
2022/06/26 03:42:45;;;;;;;8.87;7.97;;;24.50;72.10;;;;;;5122984;28;20995;-85
2022/06/26 03:45:13;;;;;;;9.43;8.43;;;24.50;71.90;;;;;;5122549;28;20440;-85
2022/06/26 03:47:42;;;;;;;8.93;8.13;;;24.60;71.20;;;;;;5121315;28;20490;-85
2022/06/26 03:50:10;;;;;;;9.20;8.30;;;24.20;71.30;;;;;;5122573;28;20428;-85
2022/06/26 03:52:38;;;;;;;8.43;7.73;;;24.10;72.10;;;;;;5122531;28;20510;-85
2022/06/26 03:55:06;;;;;;;8.43;7.70;;;23.90;72.60;;;;;;5121803;28;20509;-86
2022/06/26 03:57:36;;;;;;;9.13;7.90;;;23.80;73.10;;;;;;5122702;28;20444;-85
2022/06/26 04:00:06;;;;;;;8.43;7.60;;;23.60;71.90;;;;;;5122700;28;20425;-85
2022/06/26 04:02:34;;;;;;;7.90;7.10;;;23.50;72.00;;;;;;5122594;28;20535;-85
2022/06/26 04:05:04;;;;;;;9.23;7.60;;;23.70;73.40;;;;;;5123744;28;20419;-85
2022/06/26 04:07:32;;;;;;;10.90;9.07;;;23.80;71.30;;;;;;5121913;28;20459;-86
2022/06/26 04:10:01;;;;;;;8.30;7.50;;;23.30;73.50;;;;;;5120430;28;20464;-86
2022/06/26 04:12:29;;;;;;;8.70;7.80;;;23.20;74.60;;;;;;5118869;28;20446;-85
2022/06/26 04:14:58;;;;;;;10.40;8.17;;;23.20;75.20;;;;;;5120333;28;20443;-86
2022/06/26 04:17:26;;;;;;;9.40;8.33;;;23.50;75.60;;;;;;5120622;28;20447;-86
2022/06/26 04:19:54;;;;;;;8.00;7.30;;;23.80;73.80;;;;;;5119540;28;20531;-86
2022/06/26 04:22:23;;;;;;;12.70;9.63;;;23.90;72.50;;;;;;5121266;28;20484;-86
2022/06/26 04:24:51;;;;;;;8.33;7.53;;;23.70;73.00;;;;;;5121134;28;20467;-86
2022/06/26 04:27:19;;;;;;;12.20;8.77;;;23.80;73.40;;;;;;5120532;28;20414;-86
2022/06/26 04:29:47;;;;;;;10.90;8.70;;;23.90;74.50;;;;;;5120812;28;20442;-86
2022/06/26 04:32:16;;;;;;;8.40;7.50;;;24.10;72.10;;;;;;5122701;28;20497;-85
2022/06/26 04:34:45;;;;;;;10.57;9.57;;;24.10;72.60;;;;;;5118911;28;20539;-85
2022/06/26 04:37:13;;;;;;;10.40;9.50;;;24.00;71.90;;;;;;5122606;28;20471;-86
2022/06/26 04:39:40;;;;;;;10.50;9.47;;;23.90;72.10;;;;;;5122982;28;20474;-85
2022/06/26 04:42:08;;;;;;;11.00;9.80;;;23.60;73.00;;;;;;5123194;28;20434;-85
2022/06/26 04:44:36;;;;;;;11.00;9.07;;;23.60;73.60;;;;;;5120180;28;20502;-86
2022/06/26 04:47:05;;;;;;;12.30;10.07;;;23.80;74.50;;;;;;5119793;27;20426;-85
2022/06/26 04:49:34;;;;;;;10.40;9.40;;;24.00;72.40;;;;;;5119800;28;20489;-85
2022/06/26 04:52:02;;;;;;;15.30;10.60;;;24.20;72.10;;;;;;5109102;28;20477;-85
2022/06/26 04:54:31;;;;;;;12.07;10.97;;;24.20;71.40;;;;;;5120986;28;20436;-85
2022/06/26 04:57:00;;;;;;;11.77;10.37;;;24.20;71.80;;;;;;5120992;28;20439;-86
2022/06/26 04:59:28;;;;;;;11.00;9.80;;;24.10;72.40;;;;;;5120857;28;20406;-86
2022/06/26 05:01:56;;;;;;;11.13;9.50;;;24.30;72.10;;;;;;5120355;28;20498;-85
2022/06/26 05:04:25;;;;;;;11.90;10.40;;;24.50;71.40;;;;;;5120700;28;20468;-85
2022/06/26 05:06:54;;;;;;;15.60;12.20;;;24.70;69.90;;;;;;5120743;28;20418;-85
2022/06/26 05:09:23;;;;;;;13.80;12.40;;;24.30;71.90;;;;;;5117142;28;20489;-85
2022/06/26 05:11:51;;;;;;;13.37;11.67;;;24.10;72.20;;;;;;5118520;28;20491;-85
2022/06/26 05:14:19;;;;;;;13.40;12.00;;;23.90;72.90;;;;;;5119425;28;20441;-86
2022/06/26 05:16:47;;;;;;;15.70;13.20;;;24.20;72.80;;;;;;5118497;28;20506;-86
2022/06/26 05:19:15;;;;;;;14.50;13.10;;;24.30;71.40;;;;;;5115190;28;20450;-85
2022/06/26 05:21:43;;;;;;;16.70;13.10;;;24.10;72.20;;;;;;5117419;28;20464;-85
2022/06/26 05:24:13;;;;;;;16.10;13.47;;;24.30;73.40;;;;;;5117689;28;20479;-85
2022/06/26 05:26:41;;;;;;;13.73;12.33;;;24.50;72.00;;;;;;5116863;28;20542;-87
2022/06/26 05:29:09;;;;;;;13.53;12.17;;;24.50;73.40;;;;;;5117561;28;20511;-85
2022/06/26 05:31:37;;;;;;;14.07;12.40;;;24.60;72.80;;;;;;5117990;28;20490;-85
2022/06/26 05:34:05;;;;;;;16.90;14.73;;;24.30;73.20;;;;;;5119019;28;20465;-85
2022/06/26 05:36:33;;;;;;;18.63;14.63;;;24.20;73.90;;;;;;5116873;28;20419;-85
2022/06/26 05:39:01;;;;;;;20.43;14.33;;;24.30;74.70;;;;;;5120550;28;20457;-85
2022/06/26 05:41:31;;;;;;;19.53;14.00;;;24.20;75.30;;;;;;5116979;28;20425;-86
2022/06/26 05:43:59;;;;;;;15.87;14.17;;;24.40;75.10;;;;;;5096505;28;20468;-86
2022/06/26 05:46:27;;;;;;;15.67;14.07;;;24.60;74.90;;;;;;5097436;28;20424;-85
2022/06/26 05:48:55;;;;;;;14.33;12.83;;;24.90;75.30;;;;;;5097782;28;20438;-85
2022/06/26 05:51:24;;;;;;;16.30;14.67;;;25.30;72.70;;;;;;5097325;28;20458;-85
2022/06/26 05:53:51;;;;;;;15.50;13.83;;;25.30;72.30;;;;;;5096618;28;20511;-85
2022/06/26 05:56:19;;;;;;;19.87;16.40;;;25.10;73.90;;;;;;5096865;28;20419;-85
2022/06/26 05:58:49;;;;;;;21.47;15.17;;;24.80;73.50;;;;;;5098131;28;20533;-86
2022/06/26 06:01:17;;;;;;;18.43;15.43;;;24.70;75.20;;;;;;5098473;28;20499;-86
2022/06/26 06:03:45;;;;;;;18.33;16.53;;;24.50;77.00;;;;;;5097820;28;20438;-86
2022/06/26 06:06:13;;;;;;;16.10;14.17;;;24.60;77.00;;;;;;5097653;28;20444;-86
2022/06/26 06:08:42;;;;;;;16.77;14.50;;;24.80;76.50;;;;;;5096667;28;20827;-86
2022/06/26 06:11:10;;;;;;;19.37;15.27;;;24.60;76.90;;;;;;5094961;28;20476;-86
2022/06/26 06:13:38;;;;;;;18.23;15.27;;;24.40;78.40;;;;;;5095599;28;20507;-86
2022/06/26 06:16:07;;;;;;;20.40;14.40;;;24.10;79.90;;;;;;5113636;28;20445;-84
2022/06/26 06:18:36;;;;;;;19.10;15.83;;;24.30;79.90;;;;;;5115700;28;20423;-85
2022/06/26 06:21:10;;;;;;;28.40;17.57;;;24.20;79.70;;;;;;5115607;28;20425;-85
2022/06/26 06:23:39;;;;;;;19.67;16.17;;;23.90;80.50;;;;;;5118135;28;20442;-85
2022/06/26 06:26:07;;;;;;;27.93;16.40;;;23.90;82.20;;;;;;5117665;28;20429;-85
2022/06/26 06:28:35;;;;;;;19.80;17.70;;;23.90;81.20;;;;;;5116118;28;20522;-84
2022/06/26 06:31:03;;;;;;;23.47;16.80;;;24.10;81.60;;;;;;5119714;28;20453;-84
2022/06/26 06:33:32;;;;;;;16.90;15.10;;;24.10;82.10;;;;;;5120293;28;20446;-84
2022/06/26 06:36:00;;;;;;;22.00;16.97;;;24.10;83.60;;;;;;5120259;28;20518;-84
2022/06/26 06:38:28;;;;;;;16.40;14.63;;;24.30;81.50;;;;;;5122957;28;20448;-84
2022/06/26 06:40:56;;;;;;;22.50;16.90;;;24.60;82.70;;;;;;5122285;28;20936;-84
2022/06/26 06:43:24;;;;;;;18.80;15.90;;;24.80;78.40;;;;;;5122062;28;20551;-85
2022/06/26 06:45:53;;;;;;;18.13;13.27;;;24.50;78.50;;;;;;5124176;28;20475;-85
2022/06/26 06:48:24;;;;;;;14.23;11.07;;;24.40;80.60;;;;;;5123299;28;20480;-84
2022/06/26 06:50:54;;;;;;;12.50;9.57;;;24.50;78.30;;;;;;5124456;28;20425;-85
2022/06/26 06:53:22;;;;;;;15.80;9.70;;;24.30;79.80;;;;;;5120959;28;20461;-83
2022/06/26 06:55:51;;;;;;;13.67;9.50;;;24.40;78.50;;;;;;5119269;28;20501;-85
2022/06/26 06:58:19;;;;;;;9.67;8.20;;;24.10;78.30;;;;;;5123872;28;20467;-85
2022/06/26 07:00:47;;;;;;;10.33;7.03;;;24.30;78.00;;;;;;5120608;28;20501;-84
2022/06/26 07:03:15;;;;;;;6.87;6.30;;;24.10;76.90;;;;;;5115954;28;20495;-84
2022/06/26 07:05:43;;;;;;;5.77;5.27;;;24.10;77.70;;;;;;5117396;28;20466;-83
2022/06/26 07:08:14;;;;;;;4.67;4.40;;;24.10;76.40;;;;;;5119982;28;20414;-84
2022/06/26 07:10:41;;;;;;;5.00;4.50;;;24.30;76.00;;;;;;5119530;28;20475;-84
2022/06/26 07:13:10;;;;;;;4.77;3.23;;;24.50;73.80;;;;;;5121178;28;20501;-84
2022/06/26 07:15:38;;;;;;;3.60;3.27;;;24.30;74.30;;;;;;5119582;28;20514;-84
2022/06/26 07:18:06;;;;;;;3.73;2.67;;;24.60;73.50;;;;;;5120161;28;20459;-85
2022/06/26 07:20:34;;;;;;;3.10;2.40;;;24.40;72.40;;;;;;5121621;27;20475;-84
2022/06/26 07:23:02;;;;;;;4.20;2.30;;;24.20;73.90;;;;;;5120345;28;20526;-85
2022/06/26 07:25:32;;;;;;;5.47;2.83;;;24.50;72.60;;;;;;5122735;28;20475;-85
2022/06/26 07:28:00;;;;;;;2.70;2.50;;;24.90;71.00;;;;;;5121901;28;20494;-85
2022/06/26 07:30:27;;;;;;;3.63;3.43;;;25.00;72.00;;;;;;5121345;28;20499;-85
2022/06/26 07:32:55;;;;;;;4.40;4.10;;;25.40;70.30;;;;;;5119296;28;20430;-85
2022/06/26 07:35:23;;;;;;;3.63;3.37;;;25.50;71.30;;;;;;5118475;28;20468;-84
2022/06/26 07:37:51;;;;;;;3.50;3.27;;;25.90;67.40;;;;;;5108851;28;20512;-85
2022/06/26 07:40:19;;;;;;;3.53;3.00;;;25.60;68.60;;;;;;5100454;28;20447;-83
2022/06/26 07:42:49;;;;;;;2.60;2.50;;;25.90;69.10;;;;;;5098905;28;20472;-83
2022/06/26 07:45:17;;;;;;;5.10;3.27;;;25.70;69.00;;;;;;5099408;28;20523;-84
2022/06/26 07:47:45;;;;;;;3.07;2.97;;;25.70;69.90;;;;;;5105766;28;20455;-84
2022/06/26 07:50:13;;;;;;;6.00;3.00;;;25.90;69.50;;;;;;5106148;28;20439;-85
2022/06/26 07:52:41;;;;;;;3.67;3.43;;;25.90;66.80;;;;;;5105273;28;20559;-84
2022/06/26 07:55:09;;;;;;;3.07;2.87;;;25.60;66.60;;;;;;5109108;28;20503;-84
2022/06/26 07:57:37;;;;;;;3.10;2.90;;;25.60;68.30;;;;;;5124982;28;20410;-84
2022/06/26 08:00:09;;;;;;;3.90;3.27;;;25.70;68.60;;;;;;5121206;28;20440;-84
2022/06/26 08:02:37;;;;;;;6.33;3.20;;;25.90;66.50;;;;;;5121500;28;20529;-84
2022/06/26 08:05:06;;;;;;;5.57;2.97;;;25.90;66.90;;;;;;5122496;28;20523;-84
2022/06/26 08:07:34;;;;;;;3.37;2.27;;;26.00;66.90;;;;;;5119833;28;20445;-83
2022/06/26 08:10:02;;;;;;;2.27;2.17;;;26.40;65.40;;;;;;5118468;28;20446;-83
2022/06/26 08:12:30;;;;;;;3.97;2.33;;;26.30;63.20;;;;;;5118652;28;20446;-84
2022/06/26 08:14:59;;;;;;;3.17;2.97;;;25.90;66.50;;;;;;5118542;28;20434;-83
2022/06/26 08:17:28;;;;;;;2.50;2.20;;;26.50;65.30;;;;;;5119571;28;20422;-83
2022/06/26 08:19:56;;;;;;;2.07;1.90;;;26.70;64.40;;;;;;5118948;28;20510;-83
2022/06/26 08:22:24;;;;;;;2.83;1.77;;;26.60;62.00;;;;;;5118405;28;20473;-83
2022/06/26 08:24:52;;;;;;;1.70;1.60;;;26.40;63.20;;;;;;5119011;28;20443;-83
2022/06/26 08:27:20;;;;;;;1.37;1.27;;;26.40;62.50;;;;;;5118656;28;20478;-83
2022/06/26 08:29:48;;;;;;;1.13;1.03;;;26.20;62.20;;;;;;5111656;28;20457;-82
2022/06/26 08:32:16;;;;;;;1.37;1.27;;;26.20;61.20;;;;;;5104342;28;20518;-83
2022/06/26 08:34:45;;;;;;;1.70;1.60;;;26.20;62.00;;;;;;5119179;28;20562;-83
2022/06/26 08:37:13;;;;;;;1.90;1.80;;;26.20;60.90;;;;;;5119106;28;20459;-82
2022/06/26 08:39:42;;;;;;;2.00;1.67;;;26.00;61.10;;;;;;5118517;28;20471;-83
2022/06/26 08:42:10;;;;;;;2.17;1.90;;;26.30;61.40;;;;;;5119594;28;20519;-84
2022/06/26 08:44:41;;;;;;;1.60;1.50;;;26.40;60.20;;;;;;5120069;28;20410;-84
2022/06/26 08:47:10;;;;;;;1.87;1.77;;;25.80;60.90;;;;;;5119331;28;20543;-83
2022/06/26 08:49:38;;;;;;;2.10;2.00;;;25.60;61.90;;;;;;5121196;28;20422;-84
2022/06/26 08:52:07;;;;;;;2.40;2.10;;;25.60;62.30;;;;;;5120776;28;20465;-84
2022/06/26 08:54:35;;;;;;;2.00;1.90;;;25.60;63.50;;;;;;5121044;28;20467;-83
2022/06/26 08:57:04;;;;;;;4.77;4.37;;;25.70;61.70;;;;;;5119418;28;20484;-84
2022/06/26 08:59:32;;;;;;;5.50;5.10;;;25.80;61.40;;;;;;5119455;28;20470;-84
2022/06/26 09:02:00;;;;;;;2.23;2.13;;;25.90;61.90;;;;;;5119982;28;20555;-83
2022/06/26 09:04:28;;;;;;;2.87;2.67;;;25.70;62.00;;;;;;5119072;28;20444;-83
2022/06/26 09:06:56;;;;;;;2.30;2.10;;;25.80;60.40;;;;;;5119476;28;20464;-83
2022/06/26 09:09:31;;;;;;;2.60;2.20;;;25.80;60.70;;;;;;5119338;28;20493;-84
2022/06/26 09:12:00;;;;;;;4.17;2.10;;;26.30;60.40;;;;;;5118058;28;20463;-83
2022/06/26 09:14:29;;;;;;;2.43;2.33;;;26.50;59.50;;;;;;5116922;28;20468;-82
2022/06/26 09:17:00;;;;;;;2.70;2.50;;;26.50;61.80;;;;;;5116908;28;20418;-84
2022/06/26 09:19:33;;;;;;;2.70;2.50;;;26.50;59.90;;;;;;5096838;28;20490;-82
2022/06/26 09:22:08;;;;;;;6.17;2.60;;;26.10;61.00;;;;;;5098671;28;20528;-84
2022/06/26 09:24:41;;;;;;;2.83;2.63;;;25.90;61.20;;;;;;5132277;27;20431;-84
2022/06/26 09:27:13;;;;;;;2.53;2.20;;;26.00;62.30;;;;;;5140481;27;20546;-83
2022/06/26 09:29:42;;;;;;;2.60;2.40;;;26.50;61.40;;;;;;5142253;27;20424;-85
2022/06/26 09:32:11;;;;;;;2.10;1.90;;;26.70;59.20;;;;;;5138772;27;20487;-83
2022/06/26 09:34:39;;;;;;;2.50;2.40;;;27.20;59.40;;;;;;5132753;27;20472;-84
2022/06/26 09:37:07;;;;;;;2.07;1.87;;;26.90;58.20;;;;;;5119442;27;20440;-85
2022/06/26 09:39:35;;;;;;;2.27;2.13;;;27.10;58.40;;;;;;5117154;28;20456;-83
2022/06/26 09:42:16;;;;;;;2.23;2.07;;;27.00;57.50;;;;;;5118255;28;20502;-83
2022/06/26 09:44:45;;;;;;;2.30;2.20;;;27.30;58.30;;;;;;5117725;28;20427;-86
2022/06/26 09:47:24;;;;;;;2.27;2.17;;;27.80;57.90;;;;;;5117863;28;20440;-84
2022/06/26 09:49:53;;;;;;;2.50;2.30;;;28.50;56.20;;;;;;5115764;28;21002;-84
2022/06/26 09:52:22;;;;;;;2.97;2.00;;;28.80;55.70;;;;;;5117398;28;20881;-85
2022/06/26 09:54:50;;;;;;;5.13;2.27;;;29.10;54.20;;;;;;5115589;28;20491;-85
2022/06/26 09:57:26;;;;;;;2.00;1.90;;;29.10;52.80;;;;;;5116826;28;20466;-85
2022/06/26 09:59:55;;;;;;;3.73;3.53;;;28.90;52.20;;;;;;5115867;28;20418;-84
2022/06/26 10:07:59;;;;;;;2.63;2.17;;;28.50;53.10;;;;;;5113712;28;20523;-83
2022/06/26 10:10:27;;;;;;;2.23;2.13;;;28.50;53.00;;;;;;5113491;28;20443;-85
2022/06/26 10:12:57;;;;;;;2.40;2.30;;;28.60;54.00;;;;;;5113886;28;20520;-85
2022/06/26 10:15:28;;;;;;;5.23;2.77;;;28.60;53.10;;;;;;5115605;28;20940;-85
2022/06/26 10:18:07;;;;;;;2.73;2.63;;;28.50;53.10;;;;;;5113876;28;20511;-87
2022/06/26 10:20:38;;;;;;;2.93;2.40;;;28.50;53.80;;;;;;5114803;28;20432;-84
2022/06/26 10:23:06;;;;;;;3.20;3.10;;;28.50;54.10;;;;;;5116102;28;20528;-84
2022/06/26 10:25:35;;;;;;;3.13;2.93;;;28.60;54.00;;;;;;5113222;28;20494;-85
2022/06/26 10:28:05;;;;;;;2.77;2.67;;;28.90;53.90;;;;;;5115558;28;20538;-86
2022/06/26 10:30:33;;;;;;;2.90;2.70;;;29.20;54.10;;;;;;5113513;28;20523;-90
2022/06/26 10:33:09;;;;;;;2.67;2.53;;;29.60;52.20;;;;;;5114206;28;20459;-90
2022/06/26 10:35:38;;;;;;;3.87;3.57;;;29.70;51.80;;;;;;5112737;28;20536;-89
2022/06/26 10:38:18;;;;;;;2.67;2.50;;;29.90;51.70;;;;;;5112931;28;20564;-89
2022/06/26 10:43:42;;;;;;;3.30;3.00;;;30.10;50.80;;;;;;5116269;28;20546;-85
2022/06/26 10:46:10;;;;;;;2.80;2.70;;;29.90;50.10;;;;;;5126319;28;20527;-85
2022/06/26 10:48:38;;;;;;;3.23;3.07;;;29.70;50.30;;;;;;5107751;28;20455;-84
2022/06/26 10:51:06;;;;;;;2.87;2.70;;;29.90;49.90;;;;;;5118101;28;20511;-84
2022/06/26 10:53:37;;;;;;;3.23;3.03;;;29.90;49.90;;;;;;5122975;28;20448;-84
2022/06/26 10:56:06;;;;;;;2.77;2.57;;;30.10;49.90;;;;;;5126607;28;20479;-85
2022/06/26 10:58:35;;;;;;;3.27;3.00;;;30.20;49.60;;;;;;5128839;28;20436;-84
2022/06/26 11:01:05;;;;;;;3.43;3.23;;;30.20;49.30;;;;;;5126712;28;20460;-83
2022/06/26 11:03:33;;;;;;;2.67;2.57;;;30.00;48.80;;;;;;5129520;28;20464;-82
2022/06/26 11:06:03;;;;;;;3.03;2.83;;;30.20;49.60;;;;;;5130966;28;20427;-82
2022/06/26 11:08:32;;;;;;;2.40;2.30;;;30.30;48.40;;;;;;5128387;28;20432;-83
2022/06/26 11:11:01;;;;;;;2.60;2.50;;;30.40;48.30;;;;;;5121130;28;20531;-85
2022/06/26 11:13:29;;;;;;;2.50;2.40;;;30.40;47.10;;;;;;5122219;28;20495;-83
2022/06/26 11:15:57;;;;;;;2.10;2.10;;;30.20;45.90;;;;;;5129441;28;20438;-84
2022/06/26 11:18:27;;;;;;;2.40;2.30;;;30.30;47.50;;;;;;5127677;28;20478;-84
2022/06/26 11:20:55;;;;;;;2.23;2.13;;;30.60;47.00;;;;;;5120194;28;20471;-85
2022/06/26 11:23:25;;;;;;;2.80;2.70;;;30.70;46.10;;;;;;5121016;28;20468;-84
2022/06/26 11:25:55;;;;;;;2.87;2.67;;;30.80;46.60;;;;;;5126122;28;20443;-86
2022/06/26 11:28:27;;;;;;;2.90;2.80;;;31.00;46.10;;;;;;5123752;28;20471;-86
2022/06/26 11:30:56;;;;;;;3.33;3.03;;;31.00;46.00;;;;;;5119141;28;20479;-85
2022/06/26 11:33:26;;;;;;;3.07;2.83;;;30.90;46.40;;;;;;5125171;28;20463;-82
2022/06/26 11:36:01;;;;;;;2.53;2.40;;;30.80;45.80;;;;;;5129702;28;20491;-85
2022/06/26 11:38:29;;;;;;;2.57;2.47;;;31.10;45.40;;;;;;5123490;28;20444;-85
2022/06/26 11:40:58;;;;;;;2.90;2.80;;;31.30;45.10;;;;;;5132391;28;20435;-85
2022/06/26 11:43:26;;;;;;;2.50;2.40;;;31.40;44.80;;;;;;5122384;28;20467;-85
2022/06/26 11:45:54;;;;;;;2.57;2.47;;;31.40;44.70;;;;;;5121592;28;20523;-85
2022/06/26 11:48:22;;;;;;;2.53;2.43;;;31.50;44.80;;;;;;5125747;28;20463;-83
2022/06/26 11:50:51;;;;;;;2.10;2.00;;;31.50;44.10;;;;;;5127777;28;20447;-84
2022/06/26 11:53:23;;;;;;;2.87;2.77;;;31.50;44.20;;;;;;5124571;28;20533;-84
2022/06/26 11:55:54;;;;;;;3.20;2.40;;;31.50;44.40;;;;;;5125522;28;20548;-84
2022/06/26 11:58:23;;;;;;;2.60;2.50;;;31.60;43.90;;;;;;5124265;28;20440;-86
2022/06/26 12:00:51;;;;;;;2.83;2.40;;;31.50;44.40;;;;;;5122770;28;20958;-86
2022/06/26 12:03:22;;;;;;;2.00;1.90;;;31.50;44.00;;;;;;5116548;28;20463;-87
2022/06/26 12:05:52;;;;;;;2.03;2.03;;;31.50;43.20;;;;;;5115926;28;20448;-87
2022/06/26 12:08:21;;;;;;;2.20;2.10;;;31.70;43.80;;;;;;5116248;28;20478;-86
2022/06/26 12:10:50;;;;;;;1.90;1.80;;;32.00;43.20;;;;;;5116416;28;20471;-87
2022/06/26 12:13:23;;;;;;;2.40;2.10;;;32.20;42.80;;;;;;5115741;28;20536;-86
2022/06/26 12:15:51;;;;;;;2.80;2.60;;;32.30;42.90;;;;;;5115262;28;20975;-86
2022/06/26 12:18:19;;;;;;;1.80;1.80;;;32.40;43.00;;;;;;5101086;28;20488;-87
2022/06/26 12:20:50;;;;;;;2.40;1.70;;;32.60;42.00;;;;;;5097313;28;20479;-84
2022/06/26 12:23:18;;;;;;;1.93;1.83;;;33.00;40.60;;;;;;5107461;28;20496;-84
2022/06/26 12:25:49;;;;;;;2.00;1.90;;;33.20;39.70;;;;;;5102996;28;20434;-85
2022/06/26 12:28:24;;;;;;;1.40;1.40;;;33.20;39.40;;;;;;5114000;28;20439;-84
2022/06/26 12:30:52;;;;;;;1.47;1.47;;;33.50;39.20;;;;;;5122973;28;20443;-84
2022/06/26 12:33:19;;;;;;;3.80;3.57;;;33.70;39.10;;;;;;5120732;28;20516;-85
2022/06/26 12:35:47;;;;;;;3.80;3.60;;;33.80;38.80;;;;;;5121531;28;20443;-84
2022/06/26 12:38:21;;;;;;;3.40;3.20;;;33.90;38.20;;;;;;5123680;28;20451;-84
2022/06/26 12:40:50;;;;;;;2.00;1.90;;;34.00;36.90;;;;;;5131383;28;20431;-84
2022/06/26 12:43:18;;;;;;;1.80;1.77;;;34.00;36.00;;;;;;5125680;28;20444;-85
2022/06/26 12:45:46;;;;;;;1.57;1.47;;;34.00;35.60;;;;;;5120131;28;20465;-85
2022/06/26 12:48:14;;;;;;;1.53;1.43;;;34.20;35.60;;;;;;5123847;28;20493;-83
2022/06/26 12:50:42;;;;;;;1.23;1.13;;;34.30;35.70;;;;;;5125549;28;20996;-84
2022/06/26 12:53:10;;;;;;;1.33;1.23;;;34.60;35.40;;;;;;5126504;28;20464;-84
2022/06/26 12:55:38;;;;;;;1.20;1.20;;;34.70;35.00;;;;;;5125383;28;20472;-84
2022/06/26 12:58:10;;;;;;;1.10;1.10;;;34.80;34.90;;;;;;5125374;28;20464;-84
2022/06/26 13:00:38;;;;;;;1.07;1.07;;;34.90;34.90;;;;;;5124022;28;20431;-84